Time;durP1;ratioP1;P1;durP2;ratioP2;P2;SDS_P1;SDS_P2;PMS_P1;PMS_P2;Temp;Humidity;BMP_temperature;BMP_pressure;BME280_temperature;BME280_humidity;BME280_pressure;Samples;Min_cycle;Max_cycle;Signal;HPM_P1;HPM_P2
2022/08/30 00:01:01;;;;;;;0.52;0.52;;;15.30;99.90;;;;;;4987404;28;20033;-44
2022/08/30 00:01:58;;;;;;;4.27;1.00;;;15.40;99.90;;;;;;4981051;28;20045;-45
2022/08/30 00:04:24;;;;;;;0.75;0.75;;;15.30;99.90;;;;;;4982151;28;20039;-44
2022/08/30 00:06:50;;;;;;;2.53;0.90;;;15.40;99.90;;;;;;4973033;28;20065;-44
2022/08/30 00:09:15;;;;;;;1.42;0.77;;;15.40;99.90;;;;;;4981045;28;20067;-46
2022/08/30 00:11:41;;;;;;;0.80;0.70;;;15.30;99.90;;;;;;4972119;28;20026;-44
2022/08/30 00:14:06;;;;;;;1.27;0.73;;;15.30;99.90;;;;;;4977766;28;20019;-44
2022/08/30 00:16:32;;;;;;;0.95;0.82;;;15.30;99.90;;;;;;4970694;28;20557;-45
2022/08/30 00:18:58;;;;;;;3.53;0.70;;;15.30;99.90;;;;;;4974181;28;20041;-47
2022/08/30 00:21:25;;;;;;;0.93;0.60;;;15.30;99.90;;;;;;4973074;28;20030;-46
2022/08/30 00:23:51;;;;;;;1.42;0.80;;;15.30;99.90;;;;;;4975557;28;20054;-44
2022/08/30 00:26:17;;;;;;;1.02;0.70;;;15.30;99.90;;;;;;4970416;28;20047;-45
2022/08/30 00:28:43;;;;;;;1.23;0.90;;;15.20;99.90;;;;;;4974983;28;20050;-43
2022/08/30 00:31:09;;;;;;;0.73;0.60;;;15.20;99.90;;;;;;4966177;28;20059;-53
2022/08/30 00:33:35;;;;;;;2.53;1.00;;;15.20;99.90;;;;;;4981109;28;20101;-44
2022/08/30 00:36:01;;;;;;;0.90;0.80;;;15.20;99.90;;;;;;4974034;28;20045;-44
2022/08/30 00:38:26;;;;;;;1.10;0.80;;;15.20;99.90;;;;;;4975866;28;20022;-45
2022/08/30 00:40:52;;;;;;;0.70;0.70;;;15.10;99.90;;;;;;4974469;28;20039;-43
2022/08/30 00:43:24;;;;;;;3.30;1.23;;;15.10;99.90;;;;;;4978190;28;20030;-47
2022/08/30 00:45:51;;;;;;;2.30;1.00;;;15.10;99.90;;;;;;4978792;28;20101;-45
2022/08/30 00:48:17;;;;;;;1.85;0.85;;;15.00;99.90;;;;;;4969884;28;20551;-47
2022/08/30 00:50:59;;;;;;;1.27;1.17;;;15.00;99.90;;;;;;4981630;28;20399;-45
2022/08/30 00:53:36;;;;;;;2.33;0.90;;;14.90;99.90;;;;;;4967468;28;20026;-44
2022/08/30 00:56:03;;;;;;;0.85;0.70;;;14.90;99.90;;;;;;4977814;28;20034;-44
2022/08/30 00:58:33;;;;;;;0.77;0.70;;;14.90;99.90;;;;;;4972004;28;20509;-44
2022/08/30 01:01:00;;;;;;;1.08;0.93;;;14.90;99.90;;;;;;4971245;28;20042;-46
2022/08/30 01:03:27;;;;;;;1.23;0.90;;;14.80;99.90;;;;;;4975758;28;20106;-44
2022/08/30 01:05:54;;;;;;;0.93;0.80;;;14.80;99.90;;;;;;4979460;28;20092;-47
2022/08/30 01:08:21;;;;;;;1.33;0.82;;;14.80;99.90;;;;;;4970819;28;20029;-43
2022/08/30 01:10:47;;;;;;;1.55;0.70;;;14.80;99.90;;;;;;4977007;28;20050;-46
2022/08/30 01:13:14;;;;;;;1.80;0.73;;;14.80;99.90;;;;;;4969598;28;20023;-45
2022/08/30 01:15:41;;;;;;;3.17;1.23;;;14.80;99.90;;;;;;4974637;28;20027;-42
2022/08/30 01:18:07;;;;;;;1.73;0.80;;;14.80;99.90;;;;;;4981769;28;20085;-42
2022/08/30 01:20:42;;;;;;;2.05;1.05;;;14.80;99.90;;;;;;4973139;28;20535;-45
2022/08/30 01:23:15;;;;;;;4.65;1.00;;;14.70;99.90;;;;;;4978770;28;20098;-43
2022/08/30 01:25:43;;;;;;;2.72;1.02;;;14.70;99.90;;;;;;4970938;28;20074;-43
2022/08/30 01:28:14;;;;;;;1.58;0.82;;;14.70;99.90;;;;;;4975264;28;20031;-45
2022/08/30 01:30:41;;;;;;;1.63;0.70;;;14.70;99.90;;;;;;4968555;28;20019;-44
2022/08/30 01:33:09;;;;;;;1.60;1.00;;;14.60;99.90;;;;;;4974183;28;20045;-45
2022/08/30 01:36:02;;;;;;;1.42;1.08;;;14.60;99.90;;;;;;4978237;28;20030;-45
2022/08/30 01:38:35;;;;;;;2.22;0.70;;;14.60;99.90;;;;;;4971243;28;20030;-48
2022/08/30 01:41:13;;;;;;;0.77;0.63;;;14.60;99.90;;;;;;4972184;28;20027;-44
2022/08/30 01:43:39;;;;;;;1.25;0.85;;;14.60;99.90;;;;;;4974825;28;20034;-45
2022/08/30 01:46:05;;;;;;;1.38;0.73;;;14.60;99.90;;;;;;4970390;28;20434;-44
2022/08/30 01:48:31;;;;;;;1.10;0.98;;;14.60;99.90;;;;;;4969849;28;20023;-45
2022/08/30 01:50:57;;;;;;;1.05;0.70;;;14.50;99.90;;;;;;4979740;28;20092;-49
2022/08/30 01:53:23;;;;;;;1.40;0.90;;;14.60;99.90;;;;;;4970334;28;20019;-45
2022/08/30 01:55:48;;;;;;;1.35;0.98;;;14.60;99.90;;;;;;4979277;28;20648;-44
2022/08/30 01:58:14;;;;;;;1.83;1.17;;;14.60;99.90;;;;;;4961305;28;20515;-47
2022/08/30 02:00:39;;;;;;;2.53;1.10;;;14.60;99.90;;;;;;4973683;28;20394;-45
2022/08/30 02:03:06;;;;;;;1.58;0.93;;;14.60;99.90;;;;;;4978947;28;20383;-45
2022/08/30 02:05:32;;;;;;;1.40;0.80;;;14.60;99.90;;;;;;4969600;28;20036;-46
2022/08/30 02:07:58;;;;;;;1.10;1.00;;;14.60;99.90;;;;;;4977799;28;20031;-48
2022/08/30 02:10:23;;;;;;;0.88;0.70;;;14.60;99.90;;;;;;4967044;28;20051;-49
2022/08/30 02:12:49;;;;;;;2.35;1.08;;;14.70;99.90;;;;;;4976077;28;20105;-50
2022/08/30 02:15:15;;;;;;;2.75;1.20;;;14.70;99.90;;;;;;4978451;28;20030;-43
2022/08/30 02:17:41;;;;;;;1.65;1.20;;;14.60;99.90;;;;;;4973161;28;20027;-44
2022/08/30 02:20:07;;;;;;;1.92;1.00;;;14.60;99.90;;;;;;4978077;28;20026;-47
2022/08/30 02:22:33;;;;;;;1.02;0.85;;;14.60;99.90;;;;;;4967439;28;20054;-43
2022/08/30 02:24:59;;;;;;;2.45;0.98;;;14.60;99.90;;;;;;4977118;28;20062;-45
2022/08/30 02:27:25;;;;;;;1.27;1.15;;;14.60;99.90;;;;;;4966508;28;20015;-42
2022/08/30 02:29:51;;;;;;;2.85;1.00;;;14.60;99.90;;;;;;4973364;28;20085;-43
2022/08/30 02:32:17;;;;;;;2.10;1.08;;;14.60;99.90;;;;;;4977996;28;20026;-43
2022/08/30 02:34:43;;;;;;;0.88;0.73;;;14.60;99.90;;;;;;4973387;28;20064;-43
2022/08/30 02:37:09;;;;;;;1.15;0.90;;;14.70;99.90;;;;;;4977197;28;20471;-43
2022/08/30 02:39:35;;;;;;;1.10;0.60;;;14.60;99.90;;;;;;4969667;28;20103;-43
2022/08/30 02:42:00;;;;;;;2.65;1.02;;;14.70;99.90;;;;;;4975730;28;20502;-43
2022/08/30 02:44:26;;;;;;;2.30;0.73;;;14.60;99.90;;;;;;4965334;28;20566;-45
2022/08/30 02:46:51;;;;;;;3.50;1.38;;;14.60;99.90;;;;;;4969921;28;20034;-43
2022/08/30 02:49:17;;;;;;;2.13;0.82;;;14.70;99.90;;;;;;4977157;28;20046;-43
2022/08/30 02:51:42;;;;;;;1.27;0.80;;;14.60;99.90;;;;;;4972485;28;20034;-43
2022/08/30 02:54:08;;;;;;;2.53;0.85;;;14.70;99.90;;;;;;4977124;28;20073;-45
2022/08/30 02:56:34;;;;;;;1.42;1.10;;;14.60;99.90;;;;;;4969074;28;20031;-44
2022/08/30 02:58:59;;;;;;;1.05;0.80;;;14.60;99.90;;;;;;4976609;28;20062;-43
2022/08/30 03:01:25;;;;;;;3.33;0.98;;;14.60;99.90;;;;;;4965721;28;20106;-43
2022/08/30 03:03:50;;;;;;;4.35;1.20;;;14.70;99.90;;;;;;4980919;28;20031;-47
2022/08/30 03:06:17;;;;;;;2.13;1.15;;;14.60;99.90;;;;;;4969616;28;20015;-42
2022/08/30 03:08:43;;;;;;;3.00;1.00;;;14.60;99.90;;;;;;4974726;28;20042;-46
2022/08/30 03:11:09;;;;;;;1.55;1.00;;;14.70;99.90;;;;;;4969366;28;20515;-51
2022/08/30 03:13:34;;;;;;;1.88;1.00;;;14.60;99.90;;;;;;4976647;28;20162;-43
2022/08/30 03:16:00;;;;;;;1.33;0.98;;;14.60;99.90;;;;;;4982200;28;20114;-43
2022/08/30 03:18:26;;;;;;;0.90;0.90;;;14.60;99.90;;;;;;4974566;28;20086;-45
2022/08/30 03:20:52;;;;;;;0.88;0.88;;;14.70;99.90;;;;;;4980352;28;20043;-43
2022/08/30 03:23:18;;;;;;;1.90;1.00;;;14.60;99.90;;;;;;4971810;28;20022;-43
2022/08/30 03:25:44;;;;;;;3.47;1.20;;;14.60;99.90;;;;;;4977769;28;20023;-46
2022/08/30 03:28:09;;;;;;;1.63;0.95;;;14.70;99.90;;;;;;4970778;28;20041;-44
2022/08/30 03:30:35;;;;;;;1.08;0.98;;;14.70;99.90;;;;;;4975850;28;20019;-42
2022/08/30 03:33:02;;;;;;;1.45;1.08;;;14.70;99.90;;;;;;4982587;28;20108;-43
2022/08/30 03:35:30;;;;;;;1.10;0.80;;;14.60;99.90;;;;;;4974467;28;20043;-43
2022/08/30 03:37:57;;;;;;;1.05;0.95;;;14.70;99.90;;;;;;4980456;28;20026;-45
2022/08/30 03:40:23;;;;;;;4.78;1.25;;;14.70;99.90;;;;;;4972473;28;20386;-44
2022/08/30 03:42:49;;;;;;;2.15;1.15;;;14.70;99.90;;;;;;4977585;28;20031;-44
2022/08/30 03:45:17;;;;;;;1.75;1.20;;;14.70;99.90;;;;;;4971001;28;20027;-43
2022/08/30 03:47:43;;;;;;;0.75;0.75;;;14.70;99.90;;;;;;4976058;28;20023;-43
2022/08/30 03:50:10;;;;;;;0.70;0.70;;;14.70;99.90;;;;;;4983002;28;20459;-45
2022/08/30 03:52:36;;;;;;;1.20;0.98;;;14.80;99.90;;;;;;4973659;28;20027;-48
2022/08/30 03:55:02;;;;;;;1.48;0.80;;;14.80;99.90;;;;;;4979935;28;20033;-46
2022/08/30 03:57:28;;;;;;;2.03;1.00;;;14.80;99.90;;;;;;4972419;28;20018;-43
2022/08/30 03:59:54;;;;;;;1.63;0.98;;;14.80;99.90;;;;;;4977411;28;20034;-43
2022/08/30 04:02:19;;;;;;;1.10;0.65;;;14.80;99.90;;;;;;4974073;28;20031;-43
2022/08/30 04:04:45;;;;;;;2.58;0.98;;;14.80;99.90;;;;;;4977958;28;20027;-43
2022/08/30 04:07:11;;;;;;;1.75;1.35;;;14.80;99.90;;;;;;4971804;28;20496;-43
2022/08/30 04:09:37;;;;;;;5.43;1.15;;;14.80;99.90;;;;;;4978156;28;20034;-42
2022/08/30 04:12:02;;;;;;;1.23;1.10;;;14.80;99.90;;;;;;4968609;28;20343;-44
2022/08/30 04:14:28;;;;;;;1.10;1.00;;;14.80;99.90;;;;;;4982575;28;20023;-43
2022/08/30 04:16:54;;;;;;;1.42;0.75;;;14.80;99.90;;;;;;4976781;28;20035;-45
2022/08/30 04:19:19;;;;;;;1.13;0.80;;;14.80;99.90;;;;;;4976759;28;20060;-44
2022/08/30 04:21:45;;;;;;;1.80;0.68;;;14.80;99.90;;;;;;4976984;28;20029;-44
2022/08/30 04:24:11;;;;;;;1.30;1.20;;;14.90;99.90;;;;;;4969462;28;20043;-42
2022/08/30 04:26:37;;;;;;;1.00;0.90;;;14.90;99.90;;;;;;4978002;28;20536;-45
2022/08/30 04:29:03;;;;;;;1.58;1.08;;;14.90;99.90;;;;;;4968750;28;20118;-42
2022/08/30 04:31:30;;;;;;;1.65;0.90;;;14.90;99.90;;;;;;4981986;28;20032;-42
2022/08/30 04:33:56;;;;;;;0.65;0.65;;;14.90;99.90;;;;;;4976023;28;20041;-48
2022/08/30 04:36:22;;;;;;;1.25;1.10;;;14.90;99.90;;;;;;4976675;28;20457;-44
2022/08/30 04:38:47;;;;;;;1.98;1.00;;;15.00;99.90;;;;;;4976931;28;20035;-46
2022/08/30 04:41:16;;;;;;;2.50;1.00;;;15.00;99.90;;;;;;4970769;28;20447;-43
2022/08/30 04:43:47;;;;;;;1.42;1.00;;;15.00;99.90;;;;;;4976756;28;20102;-46
2022/08/30 04:46:13;;;;;;;1.20;1.05;;;15.00;99.90;;;;;;4967712;28;20026;-44
2022/08/30 04:48:39;;;;;;;1.27;1.10;;;15.00;99.90;;;;;;4983238;28;20022;-43
2022/08/30 04:51:07;;;;;;;1.67;1.10;;;15.00;99.90;;;;;;4973093;28;20051;-43
2022/08/30 04:53:33;;;;;;;2.25;1.15;;;15.00;99.90;;;;;;4978886;28;20030;-45
2022/08/30 04:55:58;;;;;;;3.00;1.10;;;15.00;99.90;;;;;;4973894;28;20027;-46
2022/08/30 04:58:24;;;;;;;2.92;1.08;;;15.00;99.90;;;;;;4973555;28;20026;-48
2022/08/30 05:00:49;;;;;;;1.60;1.23;;;15.00;99.90;;;;;;4975215;28;20514;-46
2022/08/30 05:03:16;;;;;;;1.40;0.93;;;15.00;99.90;;;;;;4973787;28;20022;-45
2022/08/30 05:05:48;;;;;;;1.75;1.17;;;15.00;99.90;;;;;;4971334;28;20539;-45
2022/08/30 05:08:15;;;;;;;1.67;1.13;;;15.00;99.90;;;;;;4976470;28;20395;-45
2022/08/30 05:10:42;;;;;;;1.50;1.20;;;15.00;99.90;;;;;;4969063;28;20715;-47
2022/08/30 05:13:09;;;;;;;5.10;1.38;;;15.00;99.90;;;;;;4975016;28;20034;-43
2022/08/30 05:15:36;;;;;;;4.57;1.02;;;15.00;99.90;;;;;;4978284;28;20019;-47
2022/08/30 05:18:06;;;;;;;1.52;1.10;;;15.00;99.90;;;;;;4974558;28;20029;-43
2022/08/30 05:20:32;;;;;;;4.43;1.83;;;15.00;99.90;;;;;;4977443;28;20014;-43
2022/08/30 05:22:58;;;;;;;1.58;1.20;;;15.00;99.90;;;;;;4971920;28;20019;-43
2022/08/30 05:25:26;;;;;;;5.80;1.33;;;15.00;99.90;;;;;;4976010;28;20015;-43
2022/08/30 05:27:53;;;;;;;2.17;0.95;;;14.90;99.90;;;;;;4969999;28;20045;-45
2022/08/30 05:30:20;;;;;;;4.53;1.13;;;14.90;99.90;;;;;;4974184;28;20391;-44
2022/08/30 05:32:45;;;;;;;3.00;1.27;;;14.90;99.90;;;;;;4980317;28;20451;-43
2022/08/30 05:35:12;;;;;;;4.90;1.60;;;14.90;99.90;;;;;;4972450;28;20105;-45
2022/08/30 05:37:38;;;;;;;1.20;1.05;;;14.90;99.90;;;;;;4977307;28;20029;-43
2022/08/30 05:40:06;;;;;;;4.15;1.63;;;14.90;99.90;;;;;;4969874;28;20066;-43
2022/08/30 05:42:32;;;;;;;1.67;1.20;;;15.00;99.90;;;;;;4975232;28;20050;-45
2022/08/30 05:44:57;;;;;;;3.65;1.20;;;15.00;99.90;;;;;;4968386;28;20391;-44
2022/08/30 05:47:23;;;;;;;3.42;1.23;;;15.10;99.90;;;;;;4973743;28;20022;-42
2022/08/30 05:49:49;;;;;;;3.00;1.10;;;15.10;99.90;;;;;;4979484;28;20031;-43
2022/08/30 05:52:17;;;;;;;4.75;1.17;;;15.10;99.90;;;;;;4990312;23;20043;-54
2022/08/30 05:54:43;;;;;;;1.42;1.13;;;15.20;99.90;;;;;;4970592;28;20022;-55
2022/08/30 05:57:09;;;;;;;2.08;1.25;;;15.20;99.90;;;;;;4966377;28;20090;-56
2022/08/30 05:59:35;;;;;;;11.13;2.30;;;15.30;99.90;;;;;;4968793;28;20364;-53
2022/08/30 06:02:00;;;;;;;4.50;1.42;;;15.30;99.90;;;;;;4964733;28;20110;-54
2022/08/30 06:04:26;;;;;;;1.10;1.00;;;15.40;99.90;;;;;;4969934;28;20054;-58
2022/08/30 06:06:52;;;;;;;1.05;0.93;;;15.50;99.90;;;;;;4966095;28;20035;-57
2022/08/30 06:09:17;;;;;;;1.83;1.20;;;15.50;99.90;;;;;;4969438;28;20146;-58
2022/08/30 06:11:43;;;;;;;3.28;1.20;;;15.70;99.90;;;;;;4965639;28;20101;-57
2022/08/30 06:14:09;;;;;;;1.30;0.88;;;15.70;99.90;;;;;;4967732;28;20039;-56
2022/08/30 06:16:37;;;;;;;3.45;1.27;;;15.80;99.90;;;;;;4970745;28;20026;-57
2022/08/30 06:19:05;;;;;;;2.38;1.05;;;15.90;99.90;;;;;;4966608;28;20030;-59
2022/08/30 06:21:33;;;;;;;1.40;1.13;;;15.90;99.90;;;;;;4970547;28;20107;-58
2022/08/30 06:24:00;;;;;;;19.42;3.60;;;16.00;99.90;;;;;;4964802;28;20033;-56
2022/08/30 06:26:27;;;;;;;23.55;4.22;;;16.10;99.90;;;;;;4970275;28;20041;-55
2022/08/30 06:28:54;;;;;;;4.45;1.42;;;16.10;99.90;;;;;;4940262;28;20027;-59
2022/08/30 06:31:22;;;;;;;17.92;3.30;;;16.20;99.90;;;;;;4969869;28;20062;-54
2022/08/30 06:33:48;;;;;;;3.15;1.35;;;16.40;99.90;;;;;;4953251;28;20038;-55
2022/08/30 06:36:18;;;;;;;12.15;1.60;;;16.40;99.90;;;;;;4965752;28;20110;-56
2022/08/30 06:38:44;;;;;;;1.73;1.00;;;16.50;99.90;;;;;;4970480;28;20403;-57
2022/08/30 06:41:13;;;;;;;3.58;1.10;;;16.60;99.90;;;;;;4963744;28;20039;-54
2022/08/30 06:43:39;;;;;;;1.77;0.95;;;16.60;99.90;;;;;;4970238;28;20027;-57
2022/08/30 06:46:08;;;;;;;4.03;1.17;;;16.70;99.90;;;;;;4963932;28;20023;-57
2022/08/30 06:48:34;;;;;;;3.10;1.92;;;16.80;99.90;;;;;;4968470;28;20082;-57
2022/08/30 06:50:59;;;;;;;1.90;0.98;;;17.00;99.90;;;;;;4972558;28;20396;-56
2022/08/30 06:53:25;;;;;;;1.50;0.95;;;17.10;99.90;;;;;;4970396;28;20031;-59
2022/08/30 06:55:59;;;;;;;1.42;1.20;;;17.30;99.90;;;;;;4973837;28;20118;-54
2022/08/30 06:58:26;;;;;;;1.33;0.93;;;17.40;99.90;;;;;;4969350;28;20547;-54
2022/08/30 07:00:52;;;;;;;2.38;1.10;;;17.60;99.90;;;;;;4973365;28;20623;-57
2022/08/30 07:03:18;;;;;;;3.42;1.10;;;17.70;99.90;;;;;;4968893;28;20027;-57
2022/08/30 07:05:46;;;;;;;2.63;1.40;;;17.80;99.90;;;;;;4969312;28;20069;-57
2022/08/30 07:08:11;;;;;;;1.13;0.90;;;17.80;99.90;;;;;;4971829;28;20031;-54
2022/08/30 07:10:39;;;;;;;0.88;0.73;;;17.90;99.90;;;;;;4970101;28;20030;-57
2022/08/30 07:13:05;;;;;;;1.35;0.90;;;17.90;99.90;;;;;;4952893;28;20030;-57
2022/08/30 07:15:31;;;;;;;2.58;1.00;;;18.00;99.90;;;;;;4973188;28;20070;-57
2022/08/30 07:20:40;;;;;;;3.08;1.30;;;18.10;99.90;;;;;;4972518;28;20084;-57
2022/08/30 07:23:06;;;;;;;1.05;1.05;;;18.10;99.90;;;;;;4967901;28;20110;-58
2022/08/30 07:25:32;;;;;;;1.55;0.90;;;18.10;99.90;;;;;;4971139;28;20454;-58
2022/08/30 07:27:58;;;;;;;3.22;1.20;;;18.10;99.90;;;;;;4968008;28;20034;-57
2022/08/30 07:30:23;;;;;;;1.70;1.00;;;18.10;99.90;;;;;;4970496;28;20015;-57
2022/08/30 07:32:49;;;;;;;1.00;0.73;;;18.20;99.90;;;;;;4972643;28;20158;-56
2022/08/30 07:35:15;;;;;;;2.15;0.70;;;18.20;99.90;;;;;;4969973;28;20472;-58
2022/08/30 07:37:40;;;;;;;1.75;0.80;;;18.20;99.90;;;;;;4972166;28;20027;-53
2022/08/30 07:40:07;;;;;;;2.10;1.00;;;18.20;99.90;;;;;;4968601;28;20037;-58
2022/08/30 07:42:33;;;;;;;2.25;0.80;;;18.20;99.90;;;;;;4952788;28;20029;-57
2022/08/30 07:44:59;;;;;;;1.70;1.10;;;18.20;99.90;;;;;;4967658;28;20132;-55
2022/08/30 07:47:24;;;;;;;1.13;0.77;;;18.20;99.90;;;;;;4970101;28;20070;-58
2022/08/30 07:49:50;;;;;;;1.38;0.85;;;18.10;99.90;;;;;;4972056;28;20022;-56
2022/08/30 07:52:16;;;;;;;1.35;0.90;;;18.20;99.90;;;;;;4968657;28;20487;-58
2022/08/30 07:54:41;;;;;;;1.67;0.88;;;18.20;99.90;;;;;;4971239;28;20176;-56
2022/08/30 07:57:07;;;;;;;4.38;1.20;;;18.20;99.90;;;;;;4968071;28;20110;-53
2022/08/30 07:59:33;;;;;;;1.27;0.82;;;18.20;99.90;;;;;;4970683;28;20034;-55
2022/08/30 08:01:58;;;;;;;1.45;1.13;;;18.20;99.90;;;;;;4966714;28;20325;-56
2022/08/30 08:04:24;;;;;;;1.85;0.80;;;18.20;99.90;;;;;;4972420;28;20113;-59
2022/08/30 08:06:49;;;;;;;1.83;1.15;;;18.30;99.90;;;;;;4950512;28;20065;-57
2022/08/30 08:09:15;;;;;;;0.80;0.80;;;18.40;99.90;;;;;;4970844;28;20483;-56
2022/08/30 08:11:41;;;;;;;0.85;0.85;;;18.50;99.90;;;;;;4967849;28;20058;-58
2022/08/30 08:14:07;;;;;;;1.67;0.75;;;18.50;99.90;;;;;;4969605;28;20113;-56
2022/08/30 08:16:35;;;;;;;3.45;1.13;;;18.50;99.90;;;;;;4972542;28;20027;-57
2022/08/30 08:19:01;;;;;;;3.45;1.00;;;18.50;99.90;;;;;;4967798;28;20034;-56
2022/08/30 08:21:27;;;;;;;1.10;1.00;;;18.60;99.90;;;;;;4971799;28;20765;-57
2022/08/30 08:23:53;;;;;;;4.97;1.55;;;18.70;99.90;;;;;;4967138;28;20062;-55
2022/08/30 08:26:19;;;;;;;1.70;1.27;;;18.80;99.90;;;;;;4970837;28;20109;-57
2022/08/30 08:28:45;;;;;;;1.38;0.88;;;18.80;99.90;;;;;;4967113;28;20055;-59
2022/08/30 08:31:21;;;;;;;1.75;1.00;;;18.90;99.90;;;;;;4968862;28;20027;-56
2022/08/30 08:33:46;;;;;;;3.28;1.20;;;18.80;99.90;;;;;;4971979;28;20403;-58
2022/08/30 08:36:13;;;;;;;1.38;0.82;;;18.90;99.90;;;;;;4967402;28;20035;-59
2022/08/30 08:38:39;;;;;;;2.03;1.17;;;18.90;99.90;;;;;;4971863;28;20113;-58
2022/08/30 08:41:16;;;;;;;1.40;0.90;;;18.90;99.90;;;;;;4965501;28;20499;-56
2022/08/30 08:43:42;;;;;;;2.38;0.93;;;18.90;99.90;;;;;;4971669;28;20426;-57
2022/08/30 08:46:37;;;;;;;2.45;0.93;;;18.80;99.90;;;;;;4963890;28;20030;-58
2022/08/30 08:49:05;;;;;;;2.95;1.20;;;18.80;99.90;;;;;;4969847;28;20367;-58
2022/08/30 08:54:26;;;;;;;1.58;1.00;;;18.80;99.90;;;;;;4964451;28;20049;-58
2022/08/30 08:56:53;;;;;;;2.47;1.00;;;18.80;99.90;;;;;;4966874;28;20031;-56
2022/08/30 08:59:18;;;;;;;1.55;1.02;;;18.80;99.90;;;;;;4969812;28;20388;-57
2022/08/30 09:01:45;;;;;;;1.42;1.17;;;18.80;99.90;;;;;;4966215;28;20028;-56
2022/08/30 09:04:18;;;;;;;3.28;1.60;;;18.90;99.90;;;;;;4970795;28;20634;-59
2022/08/30 09:07:02;;;;;;;0.80;0.80;;;19.00;99.90;;;;;;4967009;28;20029;-57
2022/08/30 09:09:39;;;;;;;1.58;0.98;;;19.20;99.90;;;;;;4964818;28;20022;-57
2022/08/30 09:12:08;;;;;;;2.17;0.82;;;19.30;99.90;;;;;;4963908;28;20114;-53
2022/08/30 09:14:47;;;;;;;1.52;0.73;;;19.40;99.90;;;;;;4965650;28;20478;-58
2022/08/30 09:17:15;;;;;;;0.90;0.80;;;19.40;99.90;;;;;;4967005;28;20027;-59
2022/08/30 09:19:52;;;;;;;2.38;0.93;;;19.50;99.90;;;;;;4965526;28;20029;-58
2022/08/30 09:22:39;;;;;;;1.42;0.85;;;19.50;99.90;;;;;;4961157;28;20023;-57
2022/08/30 09:25:05;;;;;;;;;;;19.50;99.90;;;;;;4969120;28;20069;-53
2022/08/30 09:27:35;;;;;;;1.50;0.90;;;19.50;99.90;;;;;;4966440;28;20021;-56
2022/08/30 09:30:29;;;;;;;0.98;0.75;;;19.50;99.90;;;;;;4968683;28;20023;-56
2022/08/30 09:33:19;;;;;;;1.40;0.88;;;19.50;99.90;;;;;;4969637;28;20050;-56
2022/08/30 09:35:48;;;;;;;2.92;0.90;;;19.60;99.90;;;;;;4967613;28;20456;-56
2022/08/30 09:38:21;;;;;;;1.17;0.95;;;19.60;99.90;;;;;;4969752;28;20019;-54
2022/08/30 09:40:51;;;;;;;1.73;0.85;;;19.60;99.90;;;;;;4966516;28;20031;-54
2022/08/30 09:43:17;;;;;;;4.60;1.00;;;19.70;99.90;;;;;;4968874;28;20403;-56
2022/08/30 09:46:03;;;;;;;1.27;0.82;;;19.80;99.90;;;;;;4955876;28;20039;-54
2022/08/30 09:48:39;;;;;;;0.82;0.60;;;19.70;99.90;;;;;;4969641;28;20109;-56
2022/08/30 09:51:13;;;;;;;1.88;0.93;;;19.80;99.90;;;;;;4968706;28;20031;-56
2022/08/30 09:54:10;;;;;;;1.50;0.88;;;19.90;99.90;;;;;;4969231;28;20185;-57
2022/08/30 09:56:51;;;;;;;2.10;0.70;;;19.90;99.90;;;;;;4962542;28;20023;-54
2022/08/30 09:59:44;;;;;;;2.55;0.90;;;19.90;99.90;;;;;;4963110;28;20091;-57
2022/08/30 10:02:15;;;;;;;2.58;0.90;;;20.00;99.90;;;;;;4963791;28;20027;-58
2022/08/30 10:05:10;;;;;;;4.07;1.50;;;20.10;99.90;;;;;;4970111;28;20022;-58
2022/08/30 10:07:53;;;;;;;5.35;0.88;;;20.30;99.90;;;;;;4967899;28;20011;-55
2022/08/30 10:10:45;;;;;;;1.45;0.90;;;20.30;99.90;;;;;;4960056;28;20031;-53
2022/08/30 10:13:36;;;;;;;1.42;0.80;;;20.40;99.90;;;;;;4967385;28;20019;-54
2022/08/30 10:16:26;;;;;;;1.17;0.73;;;20.40;99.90;;;;;;4970233;28;20023;-56
2022/08/30 10:19:10;;;;;;;0.98;0.65;;;20.50;99.90;;;;;;4966678;28;20478;-54
2022/08/30 10:21:38;;;;;;;1.55;0.95;;;20.60;99.90;;;;;;4968726;28;20105;-56
2022/08/30 10:24:10;;;;;;;1.83;0.75;;;20.50;99.90;;;;;;4968081;28;20019;-58
2022/08/30 10:26:42;;;;;;;2.75;0.75;;;20.40;99.90;;;;;;4956809;28;20046;-58
2022/08/30 10:29:27;;;;;;;6.15;1.30;;;20.40;99.90;;;;;;4966726;28;20050;-56
2022/08/30 10:31:58;;;;;;;1.08;0.77;;;20.20;99.90;;;;;;4971031;28;20030;-58
2022/08/30 10:34:28;;;;;;;2.10;0.80;;;20.10;99.90;;;;;;4970626;28;20030;-58
2022/08/30 10:37:01;;;;;;;0.75;0.75;;;20.00;99.90;;;;;;4973075;28;20098;-57
2022/08/30 10:39:32;;;;;;;1.88;0.70;;;20.00;99.90;;;;;;4969753;28;20103;-54
2022/08/30 10:42:06;;;;;;;1.27;0.90;;;20.00;99.90;;;;;;4972274;28;20043;-55
2022/08/30 10:44:38;;;;;;;1.17;0.95;;;20.00;99.90;;;;;;4969221;28;20543;-56
2022/08/30 10:47:22;;;;;;;0.68;0.68;;;20.00;99.90;;;;;;4971011;28;20197;-57
2022/08/30 10:49:54;;;;;;;1.63;0.77;;;20.00;99.90;;;;;;4956239;28;20023;-56
2022/08/30 10:52:31;;;;;;;1.30;0.80;;;20.00;99.90;;;;;;4966159;28;20045;-55
2022/08/30 10:55:07;;;;;;;0.80;0.70;;;20.00;99.90;;;;;;4972650;28;20030;-58
2022/08/30 10:57:33;;;;;;;0.93;0.57;;;20.00;99.90;;;;;;4969363;28;20023;-57
2022/08/30 11:00:09;;;;;;;2.58;1.15;;;20.00;99.90;;;;;;4971304;28;20395;-56
2022/08/30 11:03:21;;;;;;;1.45;1.02;;;19.90;99.90;;;;;;4968182;28;20026;-58
2022/08/30 11:06:08;;;;;;;4.97;1.20;;;20.00;99.90;;;;;;4923269;28;20415;-58
2022/08/30 11:08:58;;;;;;;0.90;0.90;;;20.00;99.90;;;;;;4968370;28;20015;-58
2022/08/30 11:11:42;;;;;;;1.45;1.10;;;20.00;99.90;;;;;;4966467;28;20027;-59
2022/08/30 11:14:12;;;;;;;1.42;1.02;;;20.00;99.90;;;;;;4952897;28;20035;-58
2022/08/30 11:16:41;;;;;;;1.67;1.15;;;20.00;99.90;;;;;;4955718;28;20031;-52
2022/08/30 11:19:38;;;;;;;1.58;1.13;;;20.00;99.90;;;;;;4969384;28;20031;-57
2022/08/30 11:22:12;;;;;;;1.60;0.95;;;20.20;99.90;;;;;;4971089;28;20490;-57
2022/08/30 11:25:10;;;;;;;2.53;0.77;;;20.20;99.90;;;;;;4970332;28;20041;-58
2022/08/30 11:27:51;;;;;;;0.70;0.70;;;20.30;99.90;;;;;;4917199;28;20487;-60
2022/08/30 11:30:25;;;;;;;1.17;0.70;;;20.50;99.90;;;;;;4948851;28;20628;-59
2022/08/30 11:33:25;;;;;;;2.83;1.15;;;20.60;99.90;;;;;;4954500;28;20121;-56
2022/08/30 11:35:52;;;;;;;1.25;0.90;;;20.80;99.90;;;;;;4968735;28;20141;-60
2022/08/30 11:38:37;;;;;;;1.45;1.10;;;21.00;99.90;;;;;;4955511;28;20395;-58
2022/08/30 11:41:13;;;;;;;0.70;0.70;;;21.20;99.90;;;;;;4966683;28;20054;-59
2022/08/30 11:43:41;;;;;;;1.02;0.85;;;21.40;99.90;;;;;;4973148;28;20018;-60
2022/08/30 11:46:39;;;;;;;1.83;1.00;;;21.50;99.90;;;;;;4965380;28;20169;-57
2022/08/30 11:49:14;;;;;;;2.67;1.17;;;21.40;99.90;;;;;;4954862;28;20034;-57
2022/08/30 11:51:58;;;;;;;1.20;0.70;;;21.20;99.90;;;;;;4951408;28;20479;-56
2022/08/30 11:54:49;;;;;;;0.85;0.80;;;21.10;99.90;;;;;;4975337;23;20042;-49
2022/08/30 11:57:50;;;;;;;3.10;1.05;;;21.10;99.90;;;;;;4952581;28;20019;-46
2022/08/30 12:00:30;;;;;;;0.80;0.70;;;21.00;99.90;;;;;;4946197;28;20027;-47
2022/08/30 12:02:59;;;;;;;4.78;0.85;;;21.00;99.90;;;;;;4975630;28;20039;-46
2022/08/30 12:05:37;;;;;;;2.55;0.90;;;21.00;99.90;;;;;;4991625;28;20115;-50
2022/08/30 12:08:06;;;;;;;2.25;0.70;;;21.00;99.90;;;;;;4992179;28;20026;-45
2022/08/30 12:10:57;;;;;;;0.68;0.57;;;20.80;99.90;;;;;;4992078;28;20030;-46
2022/08/30 12:13:38;;;;;;;1.25;0.80;;;20.90;99.90;;;;;;4978242;28;20768;-47
2022/08/30 12:16:18;;;;;;;1.02;0.70;;;20.90;99.90;;;;;;4991866;28;20502;-45
2022/08/30 12:18:48;;;;;;;2.00;0.93;;;20.80;99.90;;;;;;4992373;28;20034;-48
2022/08/30 12:21:17;;;;;;;0.80;0.73;;;20.80;99.90;;;;;;4990531;28;20378;-48
2022/08/30 12:24:01;;;;;;;1.17;0.80;;;20.70;99.90;;;;;;4991719;28;20037;-50
2022/08/30 12:26:27;;;;;;;2.17;0.77;;;20.80;99.90;;;;;;4992013;28;20022;-44
2022/08/30 12:29:19;;;;;;;2.67;0.85;;;20.80;99.80;;;;;;4992103;28;20390;-44
2022/08/30 12:31:53;;;;;;;0.73;0.73;;;20.80;99.60;;;;;;4987817;28;20085;-45
2022/08/30 12:34:32;;;;;;;6.97;1.42;;;20.80;99.40;;;;;;4986707;28;20492;-45
2022/08/30 12:37:04;;;;;;;2.03;0.88;;;20.80;99.10;;;;;;4991797;28;20394;-45
2022/08/30 12:39:37;;;;;;;0.90;0.70;;;20.70;99.50;;;;;;4991534;28;20022;-45
2022/08/30 12:42:23;;;;;;;2.22;0.70;;;20.80;99.80;;;;;;4991242;28;20041;-45
2022/08/30 12:44:56;;;;;;;2.45;0.75;;;20.80;98.90;;;;;;4990166;28;20057;-49
2022/08/30 12:47:31;;;;;;;3.13;1.05;;;20.70;99.00;;;;;;4985420;28;20101;-46
2022/08/30 12:49:58;;;;;;;0.70;0.57;;;20.60;98.90;;;;;;4993972;28;20023;-45
2022/08/30 12:52:35;;;;;;;3.63;0.93;;;20.60;98.30;;;;;;4991080;28;20030;-44
2022/08/30 12:55:14;;;;;;;1.65;0.93;;;20.60;98.00;;;;;;4991236;28;20402;-46
2022/08/30 12:57:53;;;;;;;9.52;1.70;;;20.70;98.50;;;;;;4991408;28;20022;-43
2022/08/30 13:00:44;;;;;;;2.30;0.90;;;20.70;97.50;;;;;;4972710;28;20023;-46
2022/08/30 13:03:32;;;;;;;1.27;0.60;;;20.70;97.30;;;;;;4981815;28;20463;-45
2022/08/30 13:05:58;;;;;;;2.47;0.77;;;20.80;97.10;;;;;;4972990;28;20113;-45
2022/08/30 13:08:36;;;;;;;1.58;0.57;;;20.90;97.20;;;;;;4991532;28;20101;-45